Time;durP1;ratioP1;P1;durP2;ratioP2;P2;SDS_P1;SDS_P2;PMS_P1;PMS_P2;Temp;Humidity;BMP_temperature;BMP_pressure;BME280_temperature;BME280_humidity;BME280_pressure;Samples;Min_cycle;Max_cycle;Signal;HPM_P1;HPM_P2
2022/08/13 00:00:00;;;;;;;7.60;3.15;;;;;;;;;;5019040;28;20041;-65
2022/08/13 00:02:26;;;;;;;7.45;3.00;;;;;;;;;;5034306;28;20508;-66
2022/08/13 00:05:01;;;;;;;6.43;2.80;;;;;;;;;;5030883;28;20389;-65
2022/08/13 00:07:26;;;;;;;8.43;3.30;;;;;;;;;;5018251;28;20075;-65
2022/08/13 00:09:52;;;;;;;7.38;3.20;;;;;;;;;;5016279;28;21714;-65
2022/08/13 00:15:12;;;;;;;8.02;2.70;;;;;;;;;;5015207;28;20377;-66
2022/08/13 00:17:37;;;;;;;9.23;2.83;;;;;;;;;;5024457;28;20053;-66
2022/08/13 00:20:03;;;;;;;5.70;3.13;;;;;;;;;;5026455;28;20079;-66
2022/08/13 00:22:29;;;;;;;5.85;2.83;;;;;;;;;;5015699;28;20075;-66
2022/08/13 00:24:55;;;;;;;7.80;2.90;;;;;;;;;;5022711;28;20037;-66
2022/08/13 00:27:22;;;;;;;9.25;2.95;;;;;;;;;;5016790;28;20108;-65
2022/08/13 00:29:47;;;;;;;5.15;2.63;;;;;;;;;;5014422;28;20160;-66
2022/08/13 00:32:14;;;;;;;8.13;2.70;;;;;;;;;;5015856;28;20029;-65
2022/08/13 00:34:39;;;;;;;9.80;3.03;;;;;;;;;;5015726;28;20525;-66
2022/08/13 00:37:07;;;;;;;8.80;3.20;;;;;;;;;;5033085;28;20033;-65
2022/08/13 00:39:33;;;;;;;4.55;2.72;;;;;;;;;;5032578;28;20021;-66
2022/08/13 00:41:58;;;;;;;5.40;2.83;;;;;;;;;;5019549;28;20044;-66
2022/08/13 00:44:23;;;;;;;5.45;3.08;;;;;;;;;;5014068;28;20623;-65
2022/08/13 00:48:41;;;;;;;7.15;2.83;;;;;;;;;;5025630;28;20803;-66
2022/08/13 00:49:34;;;;;;;7.05;3.10;;;;;;;;;;5033881;28;20371;-66
2022/08/13 00:52:01;;;;;;;6.80;2.90;;;;;;;;;;5034338;28;20124;-66
2022/08/13 00:54:26;;;;;;;9.90;3.13;;;;;;;;;;5032568;28;20025;-66
2022/08/13 00:56:52;;;;;;;5.68;3.00;;;;;;;;;;5034306;28;20049;-66
2022/08/13 00:59:17;;;;;;;13.85;3.05;;;;;;;;;;5033966;28;20390;-66
2022/08/13 01:01:44;;;;;;;5.60;2.88;;;;;;;;;;5034264;28;20040;-65
2022/08/13 01:04:09;;;;;;;7.20;2.97;;;;;;;;;;5033676;28;20713;-66
2022/08/13 01:06:35;;;;;;;13.15;3.03;;;;;;;;;;5033874;28;20032;-66
2022/08/13 01:09:01;;;;;;;9.38;2.92;;;;;;;;;;5034087;28;20075;-66
2022/08/13 01:11:27;;;;;;;9.05;3.58;;;;;;;;;;5033771;28;20021;-66
2022/08/13 01:13:53;;;;;;;9.57;3.35;;;;;;;;;;5033677;28;20032;-66
2022/08/13 01:16:18;;;;;;;5.40;3.00;;;;;;;;;;5033920;28;20029;-66
2022/08/13 01:18:45;;;;;;;8.23;3.23;;;;;;;;;;5033895;28;20034;-66
2022/08/13 01:21:13;;;;;;;7.30;3.33;;;;;;;;;;5033723;28;20060;-66
2022/08/13 01:23:39;;;;;;;7.53;3.23;;;;;;;;;;5033567;28;20032;-66
2022/08/13 01:26:04;;;;;;;7.57;3.20;;;;;;;;;;5032928;28;20037;-66
2022/08/13 01:28:30;;;;;;;7.80;3.00;;;;;;;;;;5033933;28;20041;-66
2022/08/13 01:30:56;;;;;;;8.37;3.40;;;;;;;;;;5033630;28;20032;-66
2022/08/13 01:33:22;;;;;;;6.93;3.20;;;;;;;;;;5033427;28;20478;-65
2022/08/13 01:35:49;;;;;;;7.53;3.10;;;;;;;;;;5033588;28;20032;-66
2022/08/13 01:38:14;;;;;;;9.02;3.20;;;;;;;;;;5033733;28;20033;-66
2022/08/13 01:40:40;;;;;;;8.37;3.47;;;;;;;;;;5033419;28;20035;-66
2022/08/13 01:43:05;;;;;;;6.20;3.30;;;;;;;;;;5033583;28;20104;-66
2022/08/13 01:45:31;;;;;;;4.80;2.90;;;;;;;;;;5033014;28;20041;-66
2022/08/13 01:50:41;;;;;;;7.37;3.07;;;;;;;;;;5033300;28;20136;-66
2022/08/13 01:53:07;;;;;;;6.83;3.10;;;;;;;;;;5033035;28;20057;-65
2022/08/13 01:55:39;;;;;;;8.43;3.33;;;;;;;;;;5032781;28;20037;-66
2022/08/13 01:58:06;;;;;;;6.50;3.30;;;;;;;;;;5033159;28;20034;-66
2022/08/13 02:00:31;;;;;;;8.10;3.40;;;;;;;;;;5033111;28;20033;-66
2022/08/13 02:02:59;;;;;;;7.10;3.30;;;;;;;;;;5030991;28;20033;-66
2022/08/13 02:05:26;;;;;;;7.23;3.43;;;;;;;;;;5034506;28;20057;-66
2022/08/13 02:07:51;;;;;;;5.33;3.40;;;;;;;;;;5033056;28;20040;-66
2022/08/13 02:10:19;;;;;;;6.63;3.10;;;;;;;;;;5030808;28;20381;-66
2022/08/13 02:12:46;;;;;;;11.87;3.37;;;;;;;;;;5035329;28;20076;-66
2022/08/13 02:15:12;;;;;;;8.73;3.60;;;;;;;;;;5034349;28;20018;-66
2022/08/13 02:17:41;;;;;;;5.93;3.30;;;;;;;;;;5032188;28;20121;-66
2022/08/13 02:20:07;;;;;;;6.47;3.57;;;;;;;;;;5032508;28;20527;-66
2022/08/13 02:22:33;;;;;;;8.87;3.40;;;;;;;;;;5031840;28;20021;-66
2022/08/13 02:24:59;;;;;;;9.97;3.40;;;;;;;;;;5029552;28;20030;-66
2022/08/13 02:27:25;;;;;;;6.50;3.10;;;;;;;;;;5032130;28;20036;-65
2022/08/13 02:29:55;;;;;;;7.13;3.70;;;;;;;;;;5031733;28;20573;-65
2022/08/13 02:32:21;;;;;;;6.67;3.70;;;;;;;;;;5034539;28;20021;-65
2022/08/13 02:34:49;;;;;;;8.07;3.40;;;;;;;;;;5032106;28;20022;-65
2022/08/13 02:37:15;;;;;;;9.47;3.57;;;;;;;;;;5031708;28;20037;-65
2022/08/13 02:39:40;;;;;;;8.77;3.43;;;;;;;;;;5032260;28;20371;-65
2022/08/13 02:42:06;;;;;;;5.50;3.33;;;;;;;;;;5032124;28;20030;-65
2022/08/13 02:44:31;;;;;;;7.47;3.23;;;;;;;;;;5031881;28;20067;-65
2022/08/13 02:46:56;;;;;;;6.07;3.57;;;;;;;;;;5032179;28;20041;-64
2022/08/13 02:49:22;;;;;;;7.47;3.30;;;;;;;;;;5032223;28;20421;-65
2022/08/13 02:51:49;;;;;;;5.20;3.30;;;;;;;;;;5031934;28;20422;-65
2022/08/13 02:54:16;;;;;;;10.57;3.43;;;;;;;;;;5031575;28;20037;-65
2022/08/13 02:56:42;;;;;;;10.10;3.60;;;;;;;;;;5031190;28;20217;-65
2022/08/13 02:59:10;;;;;;;7.90;3.43;;;;;;;;;;5031953;28;20101;-65
2022/08/13 03:01:36;;;;;;;10.60;3.13;;;;;;;;;;5031938;28;20021;-65
2022/08/13 03:04:01;;;;;;;7.40;3.83;;;;;;;;;;5031481;28;20026;-64
2022/08/13 03:06:27;;;;;;;10.63;3.90;;;;;;;;;;5031797;28;20025;-65
2022/08/13 03:08:52;;;;;;;8.33;3.77;;;;;;;;;;5031780;28;20036;-65
2022/08/13 03:11:18;;;;;;;10.60;3.70;;;;;;;;;;5031531;28;20037;-65
2022/08/13 03:13:55;;;;;;;34.37;4.47;;;;;;;;;;5031896;28;20036;-65
2022/08/13 03:16:22;;;;;;;24.73;4.90;;;;;;;;;;5031973;28;20036;-65
2022/08/13 03:18:47;;;;;;;31.70;4.23;;;;;;;;;;5030321;28;20055;-65
2022/08/13 03:21:16;;;;;;;38.60;5.40;;;;;;;;;;5031302;28;20087;-65
2022/08/13 03:23:43;;;;;;;29.43;4.63;;;;;;;;;;5031856;28;20093;-65
2022/08/13 03:26:08;;;;;;;25.83;4.50;;;;;;;;;;5031759;28;20039;-65
2022/08/13 03:28:34;;;;;;;17.13;4.50;;;;;;;;;;5031180;28;20037;-65
2022/08/13 03:30:59;;;;;;;25.20;4.67;;;;;;;;;;5027982;28;20022;-65
2022/08/13 03:33:27;;;;;;;16.50;4.70;;;;;;;;;;5033516;28;20025;-65
2022/08/13 03:35:52;;;;;;;15.20;4.50;;;;;;;;;;5031022;28;20014;-65
2022/08/13 03:38:17;;;;;;;10.43;3.73;;;;;;;;;;5030408;28;20037;-65
2022/08/13 03:41:01;;;;;;;9.93;4.43;;;;;;;;;;5033117;28;20026;-65
2022/08/13 03:43:27;;;;;;;8.90;4.00;;;;;;;;;;5031359;28;20108;-65
2022/08/13 03:45:54;;;;;;;11.33;4.33;;;;;;;;;;5030846;28;20076;-65
2022/08/13 03:48:20;;;;;;;10.90;4.37;;;;;;;;;;5030880;28;20040;-65
2022/08/13 03:50:46;;;;;;;14.17;4.70;;;;;;;;;;5031149;28;20125;-65
2022/08/13 03:53:11;;;;;;;9.93;4.87;;;;;;;;;;5031214;28;20036;-65
2022/08/13 03:55:42;;;;;;;11.13;4.37;;;;;;;;;;5031126;28;20056;-65
2022/08/13 03:58:07;;;;;;;8.93;4.33;;;;;;;;;;5031312;28;20057;-65
2022/08/13 04:00:34;;;;;;;10.33;4.70;;;;;;;;;;5030952;28;20057;-64
2022/08/13 04:03:04;;;;;;;7.07;4.20;;;;;;;;;;5031470;28;20030;-65
2022/08/13 04:05:30;;;;;;;10.27;4.30;;;;;;;;;;5030981;28;20520;-65
2022/08/13 04:07:56;;;;;;;7.80;4.10;;;;;;;;;;5031097;28;20029;-65
2022/08/13 04:10:21;;;;;;;9.90;4.03;;;;;;;;;;5031000;28;20021;-65
2022/08/13 04:12:46;;;;;;;6.97;3.63;;;;;;;;;;5031434;28;20536;-65
2022/08/13 04:15:12;;;;;;;9.00;4.03;;;;;;;;;;5030818;28;20025;-65
2022/08/13 04:17:37;;;;;;;10.73;4.50;;;;;;;;;;5030918;28;20033;-65
2022/08/13 04:20:03;;;;;;;9.87;4.10;;;;;;;;;;5030980;28;20032;-65
2022/08/13 04:22:29;;;;;;;10.13;4.30;;;;;;;;;;5031169;28;20048;-65
2022/08/13 04:24:54;;;;;;;9.57;4.03;;;;;;;;;;5030884;28;20033;-65
2022/08/13 04:27:19;;;;;;;7.47;3.90;;;;;;;;;;5030962;28;21098;-65
2022/08/13 04:29:44;;;;;;;7.20;3.90;;;;;;;;;;5031041;28;20109;-65
2022/08/13 04:32:09;;;;;;;10.07;3.87;;;;;;;;;;5031303;28;20075;-65
2022/08/13 04:34:35;;;;;;;7.80;4.00;;;;;;;;;;5030362;28;20029;-65
2022/08/13 04:37:01;;;;;;;7.27;4.23;;;;;;;;;;5031161;28;20033;-65
2022/08/13 04:39:26;;;;;;;8.33;4.00;;;;;;;;;;5030402;28;20105;-65
2022/08/13 04:41:52;;;;;;;8.63;4.00;;;;;;;;;;5030948;28;20057;-65
2022/08/13 04:44:17;;;;;;;8.30;3.80;;;;;;;;;;5030732;28;20029;-65
2022/08/13 04:46:42;;;;;;;10.03;4.13;;;;;;;;;;5027036;28;20037;-65
2022/08/13 04:49:10;;;;;;;10.23;3.53;;;;;;;;;;5029541;28;20029;-65
2022/08/13 04:51:35;;;;;;;8.50;3.53;;;;;;;;;;5029269;28;20029;-65
2022/08/13 04:54:01;;;;;;;5.27;3.40;;;;;;;;;;5029757;28;20152;-65
2022/08/13 04:56:26;;;;;;;9.00;3.15;;;;;;;;;;5039953;28;20025;-65
2022/08/13 04:58:52;;;;;;;9.90;3.50;;;;;;;;;;5029262;28;20040;-65
2022/08/13 05:01:17;;;;;;;6.07;3.20;;;;;;;;;;5032648;28;20469;-65
2022/08/13 05:03:45;;;;;;;8.10;3.30;;;;;;;;;;5035677;28;20100;-65
2022/08/13 05:06:18;;;;;;;6.97;3.00;;;;;;;;;;5036220;28;20025;-65
2022/08/13 05:08:44;;;;;;;5.32;3.15;;;;;;;;;;5032781;28;20045;-65
2022/08/13 05:11:12;;;;;;;7.50;2.90;;;;;;;;;;5033797;28;20029;-65
2022/08/13 05:13:38;;;;;;;6.03;2.75;;;;;;;;;;5033904;28;20095;-65
2022/08/13 05:16:06;;;;;;;8.05;2.80;;;;;;;;;;5033806;28;20469;-65
2022/08/13 05:18:32;;;;;;;11.55;2.90;;;;;;;;;;5034146;28;20049;-65
2022/08/13 05:20:59;;;;;;;5.85;2.65;;;;;;;;;;5036167;28;20060;-66
2022/08/13 05:23:25;;;;;;;5.60;2.63;;;;;;;;;;5033912;28;20478;-65
2022/08/13 05:25:50;;;;;;;5.05;2.70;;;;;;;;;;5033659;28;20053;-65
2022/08/13 05:28:17;;;;;;;4.85;2.75;;;;;;;;;;5033342;28;20421;-65
2022/08/13 05:30:43;;;;;;;6.75;2.75;;;;;;;;;;5033487;28;20052;-65
2022/08/13 05:33:13;;;;;;;6.22;2.70;;;;;;;;;;5033311;28;20049;-65
2022/08/13 05:35:39;;;;;;;7.68;2.55;;;;;;;;;;5032840;28;20037;-65
2022/08/13 05:38:04;;;;;;;7.88;2.58;;;;;;;;;;5030947;28;20056;-66
2022/08/13 05:40:30;;;;;;;8.40;2.80;;;;;;;;;;5035776;28;20057;-66
2022/08/13 05:42:59;;;;;;;8.60;2.90;;;;;;;;;;5033159;28;20045;-66
2022/08/13 05:45:25;;;;;;;7.95;2.80;;;;;;;;;;5032821;28;20068;-65
2022/08/13 05:47:50;;;;;;;10.55;3.00;;;;;;;;;;5033531;28;20028;-65
2022/08/13 05:50:16;;;;;;;10.77;3.00;;;;;;;;;;5032119;28;20505;-65
2022/08/13 05:52:42;;;;;;;8.75;2.80;;;;;;;;;;5033128;28;20033;-65
2022/08/13 05:55:10;;;;;;;8.93;3.00;;;;;;;;;;5033025;28;20109;-65
2022/08/13 05:57:35;;;;;;;10.70;2.83;;;;;;;;;;5033027;28;20025;-65
2022/08/13 06:05:28;;;;;;;7.65;2.72;;;;;;;;;;5032758;28;20091;-66
2022/08/13 06:07:54;;;;;;;6.82;2.80;;;;;;;;;;5032696;28;20026;-65
2022/08/13 06:10:19;;;;;;;4.82;2.58;;;;;;;;;;5032505;28;20478;-65
2022/08/13 06:12:45;;;;;;;8.73;2.53;;;;;;;;;;5031057;28;20052;-66
2022/08/13 06:15:11;;;;;;;4.32;2.75;;;;;;;;;;5032635;28;20024;-65
2022/08/13 06:17:37;;;;;;;11.73;3.05;;;;;;;;;;5033046;28;20075;-66
2022/08/13 06:20:03;;;;;;;10.52;2.63;;;;;;;;;;5032160;28;20474;-65
2022/08/13 06:22:28;;;;;;;6.63;2.35;;;;;;;;;;5026089;28;20051;-65
2022/08/13 06:24:54;;;;;;;5.82;2.30;;;;;;;;;;5034160;28;20037;-65
2022/08/13 06:27:19;;;;;;;5.80;2.15;;;;;;;;;;5024413;28;20145;-65
2022/08/13 06:29:45;;;;;;;4.75;2.33;;;;;;;;;;5031692;28;20021;-66
2022/08/13 06:32:11;;;;;;;7.00;2.20;;;;;;;;;;5030052;28;20059;-65
2022/08/13 06:34:37;;;;;;;5.70;2.10;;;;;;;;;;5028841;28;20117;-65
2022/08/13 06:37:03;;;;;;;8.90;2.10;;;;;;;;;;5030322;28;20037;-66
2022/08/13 06:39:29;;;;;;;7.97;2.17;;;;;;;;;;5026701;28;20021;-65
2022/08/13 06:41:55;;;;;;;10.88;2.30;;;;;;;;;;5030911;28;20032;-66
2022/08/13 06:44:20;;;;;;;5.05;2.10;;;;;;;;;;5029707;28;20021;-65
2022/08/13 06:46:46;;;;;;;6.07;2.00;;;;;;;;;;5028093;28;20123;-65
2022/08/13 06:49:11;;;;;;;5.80;1.88;;;;;;;;;;5031370;28;20497;-65
2022/08/13 06:51:37;;;;;;;6.72;2.03;;;;;;;;;;5032239;28;20029;-65
2022/08/13 06:54:03;;;;;;;8.57;1.80;;;;;;;;;;5032074;28;20397;-66
2022/08/13 06:56:28;;;;;;;10.18;1.98;;;;;;;;;;5032004;28;20021;-65
2022/08/13 06:58:54;;;;;;;4.15;1.50;;;;;;;;;;5032033;28;20037;-65
2022/08/13 07:01:21;;;;;;;5.68;1.55;;;;;;;;;;5031931;28;20421;-66
2022/08/13 07:03:47;;;;;;;5.55;1.70;;;;;;;;;;5032104;28;20638;-65
2022/08/13 07:06:20;;;;;;;9.48;1.48;;;;;;;;;;5031883;28;20026;-66
2022/08/13 07:08:47;;;;;;;6.82;1.60;;;;;;;;;;5031307;28;20025;-65
2022/08/13 07:11:21;;;;;;;22.40;2.00;;;;;;;;;;5031607;28;20080;-65
2022/08/13 07:13:49;;;;;;;6.13;1.33;;;;;;;;;;5032034;28;20083;-66
2022/08/13 07:16:16;;;;;;;7.75;1.30;;;;;;;;;;5031646;28;20446;-65
2022/08/13 07:18:41;;;;;;;5.57;1.27;;;;;;;;;;5031621;28;20028;-65
2022/08/13 07:21:11;;;;;;;6.35;1.30;;;;;;;;;;5031356;28;20116;-65
2022/08/13 07:23:36;;;;;;;3.78;1.23;;;;;;;;;;5031129;28;20489;-65
2022/08/13 07:26:02;;;;;;;4.85;1.30;;;;;;;;;;5031462;28;20079;-65
2022/08/13 07:28:28;;;;;;;3.92;1.20;;;;;;;;;;5031317;28;20395;-65
2022/08/13 07:30:55;;;;;;;5.63;1.30;;;;;;;;;;5031419;28;20036;-65
2022/08/13 07:33:20;;;;;;;3.92;1.13;;;;;;;;;;5031423;28;20021;-65
2022/08/13 07:35:46;;;;;;;3.42;1.20;;;;;;;;;;5031110;28;20022;-65
2022/08/13 07:38:13;;;;;;;10.07;1.30;;;;;;;;;;5031388;28;20377;-66
2022/08/13 07:40:38;;;;;;;10.32;1.30;;;;;;;;;;5031037;28;20029;-65
2022/08/13 07:43:04;;;;;;;6.25;1.20;;;;;;;;;;5031342;28;20036;-65
2022/08/13 07:45:29;;;;;;;7.85;1.05;;;;;;;;;;5031345;28;20061;-66
2022/08/13 07:47:56;;;;;;;6.00;1.15;;;;;;;;;;5031345;28;20068;-66
2022/08/13 07:50:22;;;;;;;4.70;1.10;;;;;;;;;;5031213;28;20026;-67
2022/08/13 07:52:55;;;;;;;5.72;1.50;;;;;;;;;;5031121;28;20055;-66
2022/08/13 07:55:22;;;;;;;4.70;1.00;;;;;;;;;;5031098;28;20021;-66
2022/08/13 07:57:48;;;;;;;7.10;1.25;;;;;;;;;;5031143;28;20049;-67
2022/08/13 08:00:24;;;;;;;8.77;1.40;;;;;;;;;;5030748;28;20068;-65
2022/08/13 08:02:54;;;;;;;6.90;1.15;;;;;;;;;;5031102;28;20025;-65
2022/08/13 08:05:23;;;;;;;4.05;1.00;;;;;;;;;;5031086;28;20033;-66
2022/08/13 08:07:50;;;;;;;6.63;1.30;;;;;;;;;;5031266;28;20026;-66
2022/08/13 08:10:16;;;;;;;5.53;1.20;;;;;;;;;;5031042;28;20025;-66
2022/08/13 08:12:41;;;;;;;3.20;0.98;;;;;;;;;;5031367;28;20075;-66
2022/08/13 08:15:07;;;;;;;7.10;1.30;;;;;;;;;;5031024;28;20405;-65
2022/08/13 08:17:33;;;;;;;4.38;1.10;;;;;;;;;;5031211;28;20028;-66
2022/08/13 08:19:58;;;;;;;4.18;1.10;;;;;;;;;;5030502;28;20405;-64
2022/08/13 08:22:24;;;;;;;3.05;1.20;;;;;;;;;;5031216;28;20056;-64
2022/08/13 08:24:50;;;;;;;5.10;1.10;;;;;;;;;;5031093;28;20071;-64
2022/08/13 08:27:16;;;;;;;5.43;1.02;;;;;;;;;;5030787;28;20473;-64
2022/08/13 08:29:42;;;;;;;5.88;1.15;;;;;;;;;;5030559;28;20025;-64
2022/08/13 08:32:08;;;;;;;3.25;1.20;;;;;;;;;;5033217;28;20022;-64
2022/08/13 08:34:34;;;;;;;3.20;1.00;;;;;;;;;;5031174;28;20021;-65
2022/08/13 08:37:00;;;;;;;3.17;1.00;;;;;;;;;;5041299;28;20021;-64
2022/08/13 08:44:48;;;;;;;4.63;1.05;;;;;;;;;;5026292;28;20060;-64
2022/08/13 08:47:13;;;;;;;5.63;1.20;;;;;;;;;;5023870;28;20060;-64
2022/08/13 08:49:39;;;;;;;5.38;1.10;;;;;;;;;;5032066;28;20048;-64
2022/08/13 08:52:05;;;;;;;3.20;1.10;;;;;;;;;;5026531;28;20072;-65
2022/08/13 08:54:31;;;;;;;4.07;1.13;;;;;;;;;;5032382;28;20108;-64
2022/08/13 08:56:56;;;;;;;4.22;1.30;;;;;;;;;;5028968;28;20034;-64
2022/08/13 08:59:46;;;;;;;7.20;1.20;;;;;;;;;;5032266;28;20025;-64
2022/08/13 09:02:18;;;;;;;3.78;1.35;;;;;;;;;;5036002;28;20029;-64
2022/08/13 09:04:54;;;;;;;6.68;1.20;;;;;;;;;;5032118;28;20487;-64
2022/08/13 09:07:22;;;;;;;4.50;1.10;;;;;;;;;;5020056;28;20528;-65
2022/08/13 09:09:54;;;;;;;2.63;1.02;;;;;;;;;;5026366;28;20351;-65
2022/08/13 09:12:23;;;;;;;5.78;1.35;;;;;;;;;;5032600;28;20061;-64
2022/08/13 09:14:49;;;;;;;4.25;1.13;;;;;;;;;;5033632;28;20021;-65
2022/08/13 09:17:14;;;;;;;11.40;1.17;;;;;;;;;;5033907;28;20091;-64
2022/08/13 09:19:41;;;;;;;5.25;1.08;;;;;;;;;;5033490;28;20552;-65
2022/08/13 09:22:06;;;;;;;3.85;1.10;;;;;;;;;;5033650;28;20013;-65
2022/08/13 09:24:32;;;;;;;2.97;1.37;;;;;;;;;;5033561;28;20074;-65
2022/08/13 09:26:59;;;;;;;3.42;1.10;;;;;;;;;;5032835;28;20245;-64
2022/08/13 09:29:24;;;;;;;5.95;1.38;;;;;;;;;;5033573;28;20478;-66
2022/08/13 09:31:50;;;;;;;6.68;1.15;;;;;;;;;;5033861;28;20147;-66
2022/08/13 09:34:16;;;;;;;6.85;1.10;;;;;;;;;;5033522;28;20374;-67
2022/08/13 09:36:45;;;;;;;5.50;1.20;;;;;;;;;;5033853;28;20106;-65
2022/08/13 09:39:23;;;;;;;3.42;1.13;;;;;;;;;;5033368;28;20110;-64
2022/08/13 09:41:51;;;;;;;8.63;1.30;;;;;;;;;;5033551;28;20021;-65
2022/08/13 09:44:16;;;;;;;5.97;1.40;;;;;;;;;;5033272;28;20034;-64
2022/08/13 09:46:42;;;;;;;4.03;1.25;;;;;;;;;;5033442;28;20026;-64
2022/08/13 09:49:08;;;;;;;8.70;1.35;;;;;;;;;;5033190;28;20026;-64
2022/08/13 09:51:35;;;;;;;7.55;1.55;;;;;;;;;;5033453;28;20045;-64
2022/08/13 09:54:08;;;;;;;3.22;1.55;;;;;;;;;;5033191;28;20037;-64
2022/08/13 09:56:37;;;;;;;3.42;1.30;;;;;;;;;;5033366;28;20417;-64
2022/08/13 09:59:02;;;;;;;6.47;1.45;;;;;;;;;;5032777;28;20100;-64
2022/08/13 10:01:28;;;;;;;4.10;1.50;;;;;;;;;;5033010;28;20100;-65
2022/08/13 10:03:54;;;;;;;3.38;1.40;;;;;;;;;;5032905;28;20029;-64
2022/08/13 10:06:20;;;;;;;8.05;1.52;;;;;;;;;;5033170;28;20033;-64
2022/08/13 10:08:46;;;;;;;6.32;1.55;;;;;;;;;;5033052;28;20552;-64
2022/08/13 10:11:12;;;;;;;4.47;1.40;;;;;;;;;;5032615;28;20030;-64
2022/08/13 10:13:37;;;;;;;16.80;2.45;;;;;;;;;;5032441;28;20022;-64
2022/08/13 10:16:02;;;;;;;4.80;1.73;;;;;;;;;;5032736;28;20052;-64
2022/08/13 10:18:28;;;;;;;8.60;1.70;;;;;;;;;;5032738;28;20327;-64
2022/08/13 10:20:54;;;;;;;5.93;1.70;;;;;;;;;;5032324;28;20034;-64
2022/08/13 10:23:19;;;;;;;9.38;1.60;;;;;;;;;;5033017;28;20033;-64
2022/08/13 10:25:46;;;;;;;7.53;1.42;;;;;;;;;;5029687;28;20390;-64
2022/08/13 10:28:20;;;;;;;5.30;1.38;;;;;;;;;;5032275;28;20030;-65
2022/08/13 10:30:46;;;;;;;2.83;1.52;;;;;;;;;;5029690;28;20009;-65
2022/08/13 10:33:12;;;;;;;7.68;1.50;;;;;;;;;;5032369;28;20022;-66
2022/08/13 10:35:38;;;;;;;3.92;1.40;;;;;;;;;;5029878;28;20045;-64
2022/08/13 10:38:05;;;;;;;6.30;1.40;;;;;;;;;;5032368;28;20049;-65
2022/08/13 10:40:30;;;;;;;7.68;1.60;;;;;;;;;;5030291;28;20025;-67
2022/08/13 10:42:56;;;;;;;2.47;1.40;;;;;;;;;;5032161;28;20024;-64
2022/08/13 10:45:24;;;;;;;2.97;1.40;;;;;;;;;;5029388;28;20024;-64
2022/08/13 10:47:50;;;;;;;6.43;1.45;;;;;;;;;;5027714;28;20370;-64
2022/08/13 10:50:17;;;;;;;3.08;1.52;;;;;;;;;;5031061;28;20503;-65
2022/08/13 10:52:42;;;;;;;3.78;1.55;;;;;;;;;;5026367;28;20026;-65
2022/08/13 10:55:12;;;;;;;3.80;1.50;;;;;;;;;;5023260;28;20068;-64
2022/08/13 10:57:45;;;;;;;5.83;1.67;;;;;;;;;;5030062;28;20068;-68
2022/08/13 11:00:11;;;;;;;3.40;1.50;;;;;;;;;;5031168;28;20113;-64
2022/08/13 11:02:37;;;;;;;5.72;1.35;;;;;;;;;;5032225;28;20021;-66
2022/08/13 11:05:05;;;;;;;4.97;1.58;;;;;;;;;;5031890;28;20036;-65
2022/08/13 11:07:31;;;;;;;3.28;1.30;;;;;;;;;;5031990;28;20037;-64
2022/08/13 11:09:56;;;;;;;3.90;1.50;;;;;;;;;;5031758;28;20056;-68
2022/08/13 11:12:22;;;;;;;6.78;1.55;;;;;;;;;;5031794;28;20053;-67
2022/08/13 11:14:48;;;;;;;4.13;1.77;;;;;;;;;;5031691;28;20025;-64
2022/08/13 11:17:17;;;;;;;4.95;1.98;;;;;;;;;;5031630;28;20547;-64
2022/08/13 11:19:45;;;;;;;4.43;1.90;;;;;;;;;;5031405;28;20478;-63
2022/08/13 11:22:10;;;;;;;5.97;2.00;;;;;;;;;;5031597;28;20060;-64
2022/08/13 11:24:36;;;;;;;6.50;2.03;;;;;;;;;;5031533;28;20061;-64
2022/08/13 11:27:01;;;;;;;4.63;1.80;;;;;;;;;;5031437;28;20036;-64
2022/08/13 11:29:26;;;;;;;5.75;1.73;;;;;;;;;;5031126;28;20021;-64
2022/08/13 11:31:52;;;;;;;5.78;1.75;;;;;;;;;;5031753;28;20026;-66
2022/08/13 11:34:17;;;;;;;6.80;1.80;;;;;;;;;;5031223;28;20490;-64
2022/08/13 11:36:42;;;;;;;2.85;1.50;;;;;;;;;;5031356;28;20017;-64
2022/08/13 11:39:07;;;;;;;3.65;1.90;;;;;;;;;;5031464;28;20053;-64
2022/08/13 11:41:33;;;;;;;13.90;2.10;;;;;;;;;;5031212;28;20596;-64
2022/08/13 11:43:58;;;;;;;9.60;2.05;;;;;;;;;;5031338;28;20409;-65
2022/08/13 11:46:24;;;;;;;4.75;2.20;;;;;;;;;;5031602;28;20390;-66
2022/08/13 11:48:49;;;;;;;4.15;2.10;;;;;;;;;;5031217;28;20026;-64
2022/08/13 11:51:14;;;;;;;6.85;2.05;;;;;;;;;;5031364;28;20078;-64
2022/08/13 11:53:40;;;;;;;5.53;2.20;;;;;;;;;;5031205;28;20028;-64
2022/08/13 11:56:05;;;;;;;3.40;1.88;;;;;;;;;;5031074;28;20052;-65
2022/08/13 11:58:32;;;;;;;4.43;2.10;;;;;;;;;;5031429;28;20417;-64
2022/08/13 12:00:57;;;;;;;4.03;2.20;;;;;;;;;;5031186;28;20550;-64
2022/08/13 12:03:22;;;;;;;6.18;2.20;;;;;;;;;;5031402;28;20101;-64
2022/08/13 12:05:48;;;;;;;7.50;2.20;;;;;;;;;;5031285;28;20478;-64
2022/08/13 12:08:14;;;;;;;7.03;2.20;;;;;;;;;;5031476;28;20474;-64
2022/08/13 12:10:39;;;;;;;7.88;2.33;;;;;;;;;;5034767;28;20446;-63
2022/08/13 12:13:04;;;;;;;6.57;2.30;;;;;;;;;;5034993;28;20079;-63
2022/08/13 12:15:29;;;;;;;5.00;2.25;;;;;;;;;;5035154;28;20041;-64
2022/08/13 12:17:55;;;;;;;3.28;2.05;;;;;;;;;;5035265;28;20032;-66
2022/08/13 12:20:21;;;;;;;5.93;2.20;;;;;;;;;;5034952;28;20029;-65
2022/08/13 12:22:51;;;;;;;4.43;2.20;;;;;;;;;;5034978;28;20024;-64
2022/08/13 12:25:16;;;;;;;7.25;2.20;;;;;;;;;;5034975;28;20044;-64
2022/08/13 12:27:41;;;;;;;5.00;2.30;;;;;;;;;;5034785;28;20022;-64
2022/08/13 12:30:07;;;;;;;6.13;2.33;;;;;;;;;;5034866;28;20017;-64
2022/08/13 12:32:33;;;;;;;4.75;2.00;;;;;;;;;;5034781;28;20081;-65
2022/08/13 12:34:58;;;;;;;6.10;2.05;;;;;;;;;;5034791;28;20052;-66
2022/08/13 12:37:24;;;;;;;8.18;2.08;;;;;;;;;;5034958;28;20025;-64
2022/08/13 12:39:50;;;;;;;5.88;2.20;;;;;;;;;;5034121;28;20021;-64
2022/08/13 12:42:15;;;;;;;7.25;2.40;;;;;;;;;;5034682;28;20025;-64
2022/08/13 12:44:40;;;;;;;3.70;2.00;;;;;;;;;;5034275;28;20140;-64
2022/08/13 12:47:06;;;;;;;5.60;2.30;;;;;;;;;;5033933;28;20021;-64
2022/08/13 12:49:31;;;;;;;8.90;2.50;;;;;;;;;;5034088;28;20652;-64
2022/08/13 12:51:56;;;;;;;5.60;2.30;;;;;;;;;;5034376;28;20038;-65
2022/08/13 12:54:26;;;;;;;3.33;1.90;;;;;;;;;;5034076;28;20533;-64
2022/08/13 12:56:51;;;;;;;6.55;2.03;;;;;;;;;;5034911;28;20013;-64
2022/08/13 12:59:16;;;;;;;4.67;2.07;;;;;;;;;;5034217;28;20109;-64
2022/08/13 13:01:41;;;;;;;5.30;2.08;;;;;;;;;;5034337;28;20339;-64
2022/08/13 13:04:07;;;;;;;7.75;2.00;;;;;;;;;;5034095;28;20040;-64
2022/08/13 13:06:32;;;;;;;6.13;2.22;;;;;;;;;;5034498;28;20025;-64
2022/08/13 13:08:57;;;;;;;6.60;2.20;;;;;;;;;;5033739;28;20517;-64
2022/08/13 13:11:22;;;;;;;6.47;2.10;;;;;;;;;;5034346;28;20033;-64
2022/08/13 13:13:49;;;;;;;5.72;2.10;;;;;;;;;;5034050;28;20625;-64
2022/08/13 13:16:15;;;;;;;4.22;1.95;;;;;;;;;;5033623;28;20021;-64
2022/08/13 13:18:40;;;;;;;5.28;2.03;;;;;;;;;;5033446;28;20037;-64
2022/08/13 13:21:05;;;;;;;4.07;1.80;;;;;;;;;;5033102;28;20021;-64
2022/08/13 13:23:30;;;;;;;4.45;1.70;;;;;;;;;;5033999;28;20444;-65
2022/08/13 13:25:57;;;;;;;7.13;1.90;;;;;;;;;;5033554;28;20029;-64
2022/08/13 13:28:24;;;;;;;3.60;2.00;;;;;;;;;;5034074;28;20026;-64
2022/08/13 13:30:50;;;;;;;11.63;2.47;;;;;;;;;;5033487;28;20029;-64
2022/08/13 13:33:16;;;;;;;5.03;2.00;;;;;;;;;;5034049;28;20040;-64
2022/08/13 13:35:43;;;;;;;7.05;2.05;;;;;;;;;;5033522;28;20018;-64
2022/08/13 13:38:09;;;;;;;6.35;2.08;;;;;;;;;;5033931;28;20025;-64
2022/08/13 13:40:35;;;;;;;6.43;1.90;;;;;;;;;;5033356;28;20029;-64
2022/08/13 13:43:00;;;;;;;3.95;1.92;;;;;;;;;;5033468;28;20025;-64
2022/08/13 13:45:27;;;;;;;5.22;1.80;;;;;;;;;;5032923;28;20079;-64
2022/08/13 13:47:53;;;;;;;4.80;1.90;;;;;;;;;;5033676;28;20091;-67
2022/08/13 13:50:18;;;;;;;4.43;1.98;;;;;;;;;;5033259;28;20025;-64
2022/08/13 13:52:44;;;;;;;6.00;2.13;;;;;;;;;;5033376;28;20112;-63
2022/08/13 13:55:09;;;;;;;5.13;2.40;;;;;;;;;;5032986;28;20283;-64
2022/08/13 13:57:37;;;;;;;5.88;2.25;;;;;;;;;;5032982;28;20057;-64
2022/08/13 14:00:03;;;;;;;8.32;2.28;;;;;;;;;;5032967;28;20108;-64
2022/08/13 14:02:28;;;;;;;4.40;2.25;;;;;;;;;;5033100;28;20064;-63
2022/08/13 14:04:54;;;;;;;8.88;2.97;;;;;;;;;;5033105;28;20025;-64
2022/08/13 14:07:19;;;;;;;6.45;2.40;;;;;;;;;;5033137;28;20063;-63
2022/08/13 14:09:44;;;;;;;5.03;2.10;;;;;;;;;;5033079;28;20116;-63
2022/08/13 14:12:10;;;;;;;6.07;2.50;;;;;;;;;;5033073;28;20044;-64
2022/08/13 14:14:36;;;;;;;4.55;2.60;;;;;;;;;;5032585;28;20021;-64
2022/08/13 14:17:03;;;;;;;4.80;2.53;;;;;;;;;;5033151;28;20097;-66
2022/08/13 14:19:29;;;;;;;9.80;2.95;;;;;;;;;;5032615;28;20025;-63
2022/08/13 14:21:55;;;;;;;6.75;3.00;;;;;;;;;;5032671;28;20025;-63
2022/08/13 14:24:20;;;;;;;5.22;3.13;;;;;;;;;;5032707;28;20025;-64
2022/08/13 14:26:46;;;;;;;5.50;2.70;;;;;;;;;;5033065;28;20013;-64
2022/08/13 14:29:13;;;;;;;5.65;2.65;;;;;;;;;;5029483;28;20025;-64
2022/08/13 14:31:38;;;;;;;7.35;2.78;;;;;;;;;;5024370;28;20053;-63
2022/08/13 14:34:03;;;;;;;7.88;3.13;;;;;;;;;;5021499;28;20478;-63
2022/08/13 14:36:31;;;;;;;6.68;3.00;;;;;;;;;;5028902;28;20029;-63
2022/08/13 14:38:56;;;;;;;4.47;2.83;;;;;;;;;;5023504;28;20041;-63
2022/08/13 14:41:21;;;;;;;5.50;2.60;;;;;;;;;;5028346;28;20477;-64
2022/08/13 14:43:47;;;;;;;6.55;3.10;;;;;;;;;;5027070;28;20021;-63
2022/08/13 14:46:13;;;;;;;7.03;3.20;;;;;;;;;;5028279;28;20032;-62
2022/08/13 14:48:40;;;;;;;7.30;2.92;;;;;;;;;;5021817;28;20065;-63
2022/08/13 14:51:07;;;;;;;8.52;2.90;;;;;;;;;;5025598;28;20071;-63